Ana Sayfa
METAR-TAF:

METAR-TAF

Havaalanları :

Recife, Pernambuco, Brezilya

Enlem: 08-08S, Boylam: 034-55W, yükseklik: 19 m

Güncel hava durumu gözlemi

Rapor saat 12:00 UTC de 36 dakika önce yapıldı.
Rüzgar güneydoğudan 10 kt
Sıcaklık 27°C
Nem 70%
Basınç 1015 hPa
Görüş mesafesi 10 km veya daha fazla
2500 ft yükseklikte parçalı bulutlu

METAR: SBRF 221200Z 14010KT 9999 SCT025 27/21 Q1015

Saat: 09:36 (12:36 UTC)

Tahmin

Rapor saat 10:00 UTC de 2 saat ve 36 dakika önce yapıldı.
Ayın 22'si saat 12 UTC'den ayın 23'si saat 12 UTC'ye kadar geçerli Tahmin
Rüzgar güneydoğudan 12 kt
Görüş mesafesi: 8000 m
2300 ft yükseklikte parçalı bulutlu

TAF: SBRF 221000Z 2212/2312 14012KT 8000 SCT023 TX28/2215Z TN25/2308Z RMK PEU

4.000'den fazla havaalanı için hava durumu gözlemleri ve tahminleri (METAR ve TAF raporları).

Kullanılabilir istasyonlar harita üzerinde sarı ve kırmızı noktalarla gösterilir.

İstasyonun adını görmek için fareyi noktanın üzerinde gezdirin.

Sonrasında hava gözlem ve tahminlerini görmek için tıklayın.

Haritayı değiştirmek için: yaklaştırmak için siyah artı işaretli yeşil düğmeye ve uzaklaştırmak için de eksi işaretli düğmeye hızla tıklayın; bitişik haritalar için yeşil okları kullanın.


METAR-TAF: